메인 페이지
METAR-TAF:

METAR-TAF

공항 :

지브롤터 공항

지브롤터, 지브롤터

위도: 36-09N, 경도: 005-21W, 고도: 5m

현재 날씨관측

예보는 20분 전, 09:20시(UTC)에 발표되었습니다.
남서6kt
온도 15°C
습도 88%
기압 1011 hPa
시정: 5000m
고도 1200ft 상공 구름 조금
고도 2000ft 상공 구름 보통
고도 4000ft 상공 구름 많음

METAR: LXGB 210920Z 23006KT 5000 RA FEW012 SCT020 BKN040 15/13 Q1011 TEMPO 4000 SHRA

시각: 10:40 (09:40 UTC)

예보

예보는 2 시간 16분 전, 07:24시(UTC)에 발표되었습니다.
예보 대상 시간: 21일 09시부터 21일 18시까지 (UTC)
남서8kt
시정 10km 이상
고도 1200ft 상공 구름 조금
고도 2000ft 상공 구름 많음
일시적
21일 09시부터 21일 18시까지 (UTC)
시정: 7000m
고도 1000ft 상공 구름 보통
확률 30% :
일시적
21일 09시부터 21일 15시까지 (UTC)
13kt
시정: 3500m
고도 600ft 상공 구름 보통
고도 1200ft 상공 구름 많음
소나기

TAF: LXGB 210724Z 2109/2118 22008KT 9999 FEW012 BKN020 TEMPO 2109/2118 7000 RA SCT010 PROB30 TEMPO 2109/2115 19013KT 3500 SHRA SCT006 BKN012 520002

4,000개 이상의 공항 관측 자료 및 예보 (METAR 및 TAF 보고).

지도상에서 검색 가능한 기상관측소가 노란 점과 빨간 점으로 표시되어 있습니다.

기상관측소 명을 보려면 표시 위로 마우스를 이동하세요.

날씨 관측과 예보를 보려면 클릭하세요.

지도 변경 : 확대하려면 엑스 표시가 있는 녹색 버튼, 축소하려면 빼기 표시가 있는 녹색 버튼, 다음 페이지의 지도를 보려면 녹색 화살표를 클릭하세요.


METAR-TAF: